首页
METAR-TAF:

METAR-TAF

机场 :

費城國際機場

費城, 宾夕法尼亚州, 美国

纬度: 39-52-06N, 经度: 075-13-52W, 海拔: 6米

当前天气观测

该预报发布于43分钟前的18:54 UTC
风速11节,风向西北,有时为17节阵风
温度 11°C
湿度 24%
气压 1025 hPa
能見度: 16.1公里
散云层高于28000英尺

METAR: KPHL 191854Z 32011G17KT 10SM SCT280 11/M09 A3026 RMK AO2 PK WND 32026/1818 SLP245 T01061089

时间: 14:37 (19:37 UTC)

预报

该预报发布于2小时和8分钟前的17:29 UTC
预报有效从19日的 18点(UTC)到 20日的 24点(UTC)
风速13节,风向西北,有时为25节阵风
能見度: 10公里
散云层高于25000英尺
从 19日的 2300点(UTC)
风速10节,风向西北
能見度: 10公里
散云层高于25000英尺
从 20日的 0200点(UTC)
风速6节,风向西北
能見度: 10公里
散云层高于25000英尺
从 20日的 1200点(UTC)
风速6节,风向
能見度: 10公里
多云层高于20000英尺

TAF: KPHL 191729Z 1918/2024 31013G25KT P6SM SCT250 FM192300 32010KT P6SM SCT250 FM200200 32006KT P6SM SCT250 FM201200 35006KT P6SM BKN200

超过4000个机场的气象观测和天气预报(METAR&TAF报告)。

可查询的气象台以黄色和红色小点在地图上表示。

将鼠标移到小点上方,可查看气象台名称。

然后点击查看天气观测和预报。

如需切换地图:点击带黑十字的绿色按钮放大地图;点击带横线的绿色按钮缩小地图;或者点击绿色箭头查看邻近地区的地图。


METAR-TAF: